sensor_id;sensor_type;location;lat;lon;timestamp;temperature;humidity
40600;DHT22;26309;50.924;4.754;2023-03-01T00:01:59;-1.20;99.90
40600;DHT22;26309;50.924;4.754;2023-03-01T00:04:25;-1.30;99.90
40600;DHT22;26309;50.924;4.754;2023-03-01T00:06:52;-1.40;99.90
40600;DHT22;26309;50.924;4.754;2023-03-01T00:09:18;-1.40;99.90
40600;DHT22;26309;50.924;4.754;2023-03-01T00:11:44;-1.30;99.90
40600;DHT22;26309;50.924;4.754;2023-03-01T00:14:10;-1.40;99.90
40600;DHT22;26309;50.924;4.754;2023-03-01T00:16:40;-1.30;99.90
40600;DHT22;26309;50.924;4.754;2023-03-01T00:19:15;-1.50;99.90
40600;DHT22;26309;50.924;4.754;2023-03-01T00:21:42;-1.50;99.90
40600;DHT22;26309;50.924;4.754;2023-03-01T00:24:10;-1.40;99.90
40600;DHT22;26309;50.924;4.754;2023-03-01T00:26:36;-1.40;99.90
40600;DHT22;26309;50.924;4.754;2023-03-01T00:29:03;-1.30;99.90
40600;DHT22;26309;50.924;4.754;2023-03-01T00:31:31;-1.30;99.90
40600;DHT22;26309;50.924;4.754;2023-03-01T00:33:59;-1.30;99.90
40600;DHT22;26309;50.924;4.754;2023-03-01T00:36:28;-1.40;99.90
40600;DHT22;26309;50.924;4.754;2023-03-01T00:38:54;-1.50;99.90
40600;DHT22;26309;50.924;4.754;2023-03-01T00:41:21;-1.50;99.90
40600;DHT22;26309;50.924;4.754;2023-03-01T00:43:52;-1.50;99.90
40600;DHT22;26309;50.924;4.754;2023-03-01T00:46:21;-1.60;99.90
40600;DHT22;26309;50.924;4.754;2023-03-01T00:48:47;-1.60;99.90
40600;DHT22;26309;50.924;4.754;2023-03-01T00:51:16;-1.60;99.90
40600;DHT22;26309;50.924;4.754;2023-03-01T00:53:43;-1.60;99.90
40600;DHT22;26309;50.924;4.754;2023-03-01T00:56:10;-1.70;99.90
40600;DHT22;26309;50.924;4.754;2023-03-01T00:58:37;-1.70;99.90
40600;DHT22;26309;50.924;4.754;2023-03-01T01:01:12;-1.70;99.90
40600;DHT22;26309;50.924;4.754;2023-03-01T01:03:51;-1.70;99.90
40600;DHT22;26309;50.924;4.754;2023-03-01T01:06:23;-1.70;99.90
40600;DHT22;26309;50.924;4.754;2023-03-01T01:08:50;-1.80;99.90
40600;DHT22;26309;50.924;4.754;2023-03-01T01:11:16;-1.80;99.90
40600;DHT22;26309;50.924;4.754;2023-03-01T01:13:45;-1.80;99.90
40600;DHT22;26309;50.924;4.754;2023-03-01T01:16:11;-1.80;99.90
40600;DHT22;26309;50.924;4.754;2023-03-01T01:18:37;-1.80;99.90
40600;DHT22;26309;50.924;4.754;2023-03-01T01:21:08;-1.80;99.90
40600;DHT22;26309;50.924;4.754;2023-03-01T01:23:34;-1.90;99.90
40600;DHT22;26309;50.924;4.754;2023-03-01T01:26:09;-1.80;99.90
40600;DHT22;26309;50.924;4.754;2023-03-01T01:28:36;-1.50;99.90
40600;DHT22;26309;50.924;4.754;2023-03-01T01:31:02;-1.60;99.90
40600;DHT22;26309;50.924;4.754;2023-03-01T01:33:28;-1.80;99.90
40600;DHT22;26309;50.924;4.754;2023-03-01T01:35:54;-1.80;99.90
40600;DHT22;26309;50.924;4.754;2023-03-01T01:38:20;-2.00;99.90
40600;DHT22;26309;50.924;4.754;2023-03-01T01:40:47;-2.00;99.90
40600;DHT22;26309;50.924;4.754;2023-03-01T01:46:03;-1.70;99.90
40600;DHT22;26309;50.924;4.754;2023-03-01T01:48:39;-1.60;99.90
40600;DHT22;26309;50.924;4.754;2023-03-01T01:51:23;-1.80;99.90
40600;DHT22;26309;50.924;4.754;2023-03-01T01:53:55;-1.70;99.90
40600;DHT22;26309;50.924;4.754;2023-03-01T01:56:24;-1.70;99.90
40600;DHT22;26309;50.924;4.754;2023-03-01T01:58:51;-2.00;99.90
40600;DHT22;26309;50.924;4.754;2023-03-01T02:01:18;-2.10;99.90
40600;DHT22;26309;50.924;4.754;2023-03-01T02:03:47;-2.20;99.90
40600;DHT22;26309;50.924;4.754;2023-03-01T02:06:30;-2.30;99.90
40600;DHT22;26309;50.924;4.754;2023-03-01T02:09:02;-2.30;99.90
40600;DHT22;26309;50.924;4.754;2023-03-01T02:11:30;-2.10;99.90
40600;DHT22;26309;50.924;4.754;2023-03-01T02:13:57;-2.10;99.90
40600;DHT22;26309;50.924;4.754;2023-03-01T02:16:22;-2.10;99.90
40600;DHT22;26309;50.924;4.754;2023-03-01T02:18:49;-2.10;99.90
40600;DHT22;26309;50.924;4.754;2023-03-01T02:21:42;-2.10;99.90
40600;DHT22;26309;50.924;4.754;2023-03-01T02:27:23;-2.30;99.90
40600;DHT22;26309;50.924;4.754;2023-03-01T02:29:51;-2.30;99.90
40600;DHT22;26309;50.924;4.754;2023-03-01T02:34:54;-2.40;99.90
40600;DHT22;26309;50.924;4.754;2023-03-01T02:37:21;-2.50;99.90
40600;DHT22;26309;50.924;4.754;2023-03-01T02:40:04;-2.40;99.90
40600;DHT22;26309;50.924;4.754;2023-03-01T02:42:35;-2.40;99.90
40600;DHT22;26309;50.924;4.754;2023-03-01T02:45:02;-2.40;99.90
40600;DHT22;26309;50.924;4.754;2023-03-01T02:47:28;-2.40;99.90
40600;DHT22;26309;50.924;4.754;2023-03-01T02:49:54;-2.40;99.90
40600;DHT22;26309;50.924;4.754;2023-03-01T02:55:16;-2.40;99.90
40600;DHT22;26309;50.924;4.754;2023-03-01T02:57:44;-2.40;99.90
40600;DHT22;26309;50.924;4.754;2023-03-01T03:00:17;-2.50;99.90
40600;DHT22;26309;50.924;4.754;2023-03-01T03:02:48;-2.40;99.90
40600;DHT22;26309;50.924;4.754;2023-03-01T03:05:21;-2.40;99.90
40600;DHT22;26309;50.924;4.754;2023-03-01T03:07:48;-2.60;99.90
40600;DHT22;26309;50.924;4.754;2023-03-01T03:10:18;-2.60;99.90
40600;DHT22;26309;50.924;4.754;2023-03-01T03:12:53;-2.60;99.90
40600;DHT22;26309;50.924;4.754;2023-03-01T03:15:19;-2.60;99.90
40600;DHT22;26309;50.924;4.754;2023-03-01T03:17:46;-2.60;99.90
40600;DHT22;26309;50.924;4.754;2023-03-01T03:20:15;-2.60;99.90
40600;DHT22;26309;50.924;4.754;2023-03-01T03:22:46;-2.60;99.90
40600;DHT22;26309;50.924;4.754;2023-03-01T03:25:12;-2.70;99.90
40600;DHT22;26309;50.924;4.754;2023-03-01T03:27:40;-2.60;99.90
40600;DHT22;26309;50.924;4.754;2023-03-01T03:30:09;-2.60;99.90
40600;DHT22;26309;50.924;4.754;2023-03-01T03:32:38;-2.80;99.90
40600;DHT22;26309;50.924;4.754;2023-03-01T03:35:07;-2.90;99.90
40600;DHT22;26309;50.924;4.754;2023-03-01T03:37:39;-2.90;99.90
40600;DHT22;26309;50.924;4.754;2023-03-01T03:40:25;-2.90;99.90
40600;DHT22;26309;50.924;4.754;2023-03-01T03:42:51;-2.90;99.90
40600;DHT22;26309;50.924;4.754;2023-03-01T03:45:17;-2.90;99.90
40600;DHT22;26309;50.924;4.754;2023-03-01T03:47:44;-2.80;99.90
40600;DHT22;26309;50.924;4.754;2023-03-01T03:50:11;-2.80;99.90
40600;DHT22;26309;50.924;4.754;2023-03-01T03:52:38;-2.90;99.90
40600;DHT22;26309;50.924;4.754;2023-03-01T03:55:05;-2.90;99.90
40600;DHT22;26309;50.924;4.754;2023-03-01T03:57:40;-2.90;99.90
40600;DHT22;26309;50.924;4.754;2023-03-01T04:00:09;-2.90;99.90
40600;DHT22;26309;50.924;4.754;2023-03-01T04:02:42;-2.90;99.90
40600;DHT22;26309;50.924;4.754;2023-03-01T04:05:09;-2.90;99.90
40600;DHT22;26309;50.924;4.754;2023-03-01T04:07:36;-2.80;99.90
40600;DHT22;26309;50.924;4.754;2023-03-01T04:10:11;-2.60;99.90
40600;DHT22;26309;50.924;4.754;2023-03-01T04:12:38;-2.70;99.90
40600;DHT22;26309;50.924;4.754;2023-03-01T04:15:06;-2.60;99.90
40600;DHT22;26309;50.924;4.754;2023-03-01T04:17:47;-2.80;99.90
40600;DHT22;26309;50.924;4.754;2023-03-01T04:20:16;-2.90;99.90
40600;DHT22;26309;50.924;4.754;2023-03-01T04:22:43;-2.80;99.90
40600;DHT22;26309;50.924;4.754;2023-03-01T04:25:13;-2.70;99.90
40600;DHT22;26309;50.924;4.754;2023-03-01T04:27:40;-2.80;99.90
40600;DHT22;26309;50.924;4.754;2023-03-01T04:30:07;-3.00;99.90
40600;DHT22;26309;50.924;4.754;2023-03-01T04:32:33;-2.90;99.90
40600;DHT22;26309;50.924;4.754;2023-03-01T04:34:59;-2.90;99.90
40600;DHT22;26309;50.924;4.754;2023-03-01T04:37:26;-3.00;99.90
40600;DHT22;26309;50.924;4.754;2023-03-01T04:39:52;-3.00;99.90
40600;DHT22;26309;50.924;4.754;2023-03-01T04:42:18;-3.10;99.90
40600;DHT22;26309;50.924;4.754;2023-03-01T04:44:45;-3.10;99.90
40600;DHT22;26309;50.924;4.754;2023-03-01T04:47:11;-3.10;99.90
40600;DHT22;26309;50.924;4.754;2023-03-01T04:49:37;-3.10;99.90
40600;DHT22;26309;50.924;4.754;2023-03-01T04:52:04;-3.10;99.90
40600;DHT22;26309;50.924;4.754;2023-03-01T04:54:34;-3.10;99.90
40600;DHT22;26309;50.924;4.754;2023-03-01T04:57:01;-3.10;99.90
40600;DHT22;26309;50.924;4.754;2023-03-01T04:59:27;-3.10;99.90
40600;DHT22;26309;50.924;4.754;2023-03-01T05:01:55;-3.10;99.90
40600;DHT22;26309;50.924;4.754;2023-03-01T05:04:22;-3.10;99.90
40600;DHT22;26309;50.924;4.754;2023-03-01T05:06:48;-3.30;99.90
40600;DHT22;26309;50.924;4.754;2023-03-01T05:09:14;-3.40;99.90
40600;DHT22;26309;50.924;4.754;2023-03-01T05:11:40;-3.30;99.90
40600;DHT22;26309;50.924;4.754;2023-03-01T05:14:07;-3.50;99.90
40600;DHT22;26309;50.924;4.754;2023-03-01T05:16:34;-3.50;99.90
40600;DHT22;26309;50.924;4.754;2023-03-01T05:19:03;-3.50;99.90
40600;DHT22;26309;50.924;4.754;2023-03-01T05:21:39;-3.50;99.90
40600;DHT22;26309;50.924;4.754;2023-03-01T05:24:26;-3.60;99.90
40600;DHT22;26309;50.924;4.754;2023-03-01T05:26:52;-3.50;99.90
40600;DHT22;26309;50.924;4.754;2023-03-01T05:29:20;-3.50;99.90
40600;DHT22;26309;50.924;4.754;2023-03-01T05:31:58;-3.50;99.90
40600;DHT22;26309;50.924;4.754;2023-03-01T05:34:25;-3.60;99.90
40600;DHT22;26309;50.924;4.754;2023-03-01T05:36:52;-3.60;99.90
40600;DHT22;26309;50.924;4.754;2023-03-01T05:39:22;-3.60;99.90
40600;DHT22;26309;50.924;4.754;2023-03-01T05:41:53;-3.60;99.90
40600;DHT22;26309;50.924;4.754;2023-03-01T05:44:19;-3.50;99.90
40600;DHT22;26309;50.924;4.754;2023-03-01T05:46:45;-3.50;99.90
40600;DHT22;26309;50.924;4.754;2023-03-01T05:49:12;-3.50;99.90
40600;DHT22;26309;50.924;4.754;2023-03-01T05:51:42;-3.60;99.90
40600;DHT22;26309;50.924;4.754;2023-03-01T05:54:09;-3.40;99.90
40600;DHT22;26309;50.924;4.754;2023-03-01T05:56:37;-3.50;99.90
40600;DHT22;26309;50.924;4.754;2023-03-01T05:59:04;-3.50;99.90
40600;DHT22;26309;50.924;4.754;2023-03-01T06:01:34;-3.60;99.90
40600;DHT22;26309;50.924;4.754;2023-03-01T06:04:00;-3.60;99.90
40600;DHT22;26309;50.924;4.754;2023-03-01T06:06:26;-3.40;99.90
40600;DHT22;26309;50.924;4.754;2023-03-01T06:08:52;-3.00;99.90
40600;DHT22;26309;50.924;4.754;2023-03-01T06:11:19;-3.20;99.90
40600;DHT22;26309;50.924;4.754;2023-03-01T06:13:46;-3.50;99.90
40600;DHT22;26309;50.924;4.754;2023-03-01T06:16:13;-3.40;99.90
40600;DHT22;26309;50.924;4.754;2023-03-01T06:18:39;-3.40;99.90
40600;DHT22;26309;50.924;4.754;2023-03-01T06:21:06;-3.40;99.90
40600;DHT22;26309;50.924;4.754;2023-03-01T06:23:32;-3.60;99.90
40600;DHT22;26309;50.924;4.754;2023-03-01T06:25:58;-3.60;99.90
40600;DHT22;26309;50.924;4.754;2023-03-01T06:28:24;-3.50;99.90
40600;DHT22;26309;50.924;4.754;2023-03-01T06:30:51;-3.50;99.90
40600;DHT22;26309;50.924;4.754;2023-03-01T06:33:18;-3.40;99.90
40600;DHT22;26309;50.924;4.754;2023-03-01T06:35:46;-3.40;99.90
40600;DHT22;26309;50.924;4.754;2023-03-01T06:38:12;-3.40;99.90
40600;DHT22;26309;50.924;4.754;2023-03-01T06:40:40;-3.40;99.90
40600;DHT22;26309;50.924;4.754;2023-03-01T06:43:07;-3.40;99.90
40600;DHT22;26309;50.924;4.754;2023-03-01T06:45:33;-3.40;99.90
40600;DHT22;26309;50.924;4.754;2023-03-01T06:48:07;-3.40;99.90
40600;DHT22;26309;50.924;4.754;2023-03-01T06:50:34;-3.30;99.90
40600;DHT22;26309;50.924;4.754;2023-03-01T06:53:00;-3.30;99.90
40600;DHT22;26309;50.924;4.754;2023-03-01T06:55:26;-3.20;99.90
40600;DHT22;26309;50.924;4.754;2023-03-01T06:57:59;-3.20;99.90
40600;DHT22;26309;50.924;4.754;2023-03-01T07:00:26;-3.20;99.90
40600;DHT22;26309;50.924;4.754;2023-03-01T07:02:52;-3.10;99.90
40600;DHT22;26309;50.924;4.754;2023-03-01T07:05:18;-3.00;99.90
40600;DHT22;26309;50.924;4.754;2023-03-01T07:07:44;-3.00;99.90
40600;DHT22;26309;50.924;4.754;2023-03-01T07:10:11;-2.40;99.90
40600;DHT22;26309;50.924;4.754;2023-03-01T07:12:37;-2.30;99.90
40600;DHT22;26309;50.924;4.754;2023-03-01T07:15:04;-2.30;99.90
40600;DHT22;26309;50.924;4.754;2023-03-01T07:17:30;-2.20;99.90
40600;DHT22;26309;50.924;4.754;2023-03-01T07:19:56;-2.10;99.90
40600;DHT22;26309;50.924;4.754;2023-03-01T07:22:22;-2.00;99.90
40600;DHT22;26309;50.924;4.754;2023-03-01T07:24:48;-2.00;99.90
40600;DHT22;26309;50.924;4.754;2023-03-01T07:27:14;-1.90;99.90
40600;DHT22;26309;50.924;4.754;2023-03-01T07:29:40;-1.80;99.90
40600;DHT22;26309;50.924;4.754;2023-03-01T07:32:06;-1.70;99.90
40600;DHT22;26309;50.924;4.754;2023-03-01T07:34:32;-1.60;99.90
40600;DHT22;26309;50.924;4.754;2023-03-01T07:36:58;-1.60;99.90
40600;DHT22;26309;50.924;4.754;2023-03-01T07:39:24;-1.50;99.90
40600;DHT22;26309;50.924;4.754;2023-03-01T07:41:50;-1.30;99.90
40600;DHT22;26309;50.924;4.754;2023-03-01T07:44:16;-1.20;99.90
40600;DHT22;26309;50.924;4.754;2023-03-01T07:46:43;-1.20;99.90
40600;DHT22;26309;50.924;4.754;2023-03-01T07:49:10;-1.10;99.90
40600;DHT22;26309;50.924;4.754;2023-03-01T07:51:36;-0.90;99.90
40600;DHT22;26309;50.924;4.754;2023-03-01T07:54:02;-0.80;99.90
40600;DHT22;26309;50.924;4.754;2023-03-01T07:56:27;-0.60;99.90
40600;DHT22;26309;50.924;4.754;2023-03-01T07:58:54;-0.40;99.90
40600;DHT22;26309;50.924;4.754;2023-03-01T08:01:20;-0.30;99.90
40600;DHT22;26309;50.924;4.754;2023-03-01T08:03:47;-0.20;99.90
40600;DHT22;26309;50.924;4.754;2023-03-01T08:06:16;0.00;99.90
40600;DHT22;26309;50.924;4.754;2023-03-01T08:08:43;0.10;99.90
40600;DHT22;26309;50.924;4.754;2023-03-01T08:11:13;0.20;99.90
40600;DHT22;26309;50.924;4.754;2023-03-01T08:13:40;0.40;99.90
40600;DHT22;26309;50.924;4.754;2023-03-01T08:16:09;0.50;99.90
40600;DHT22;26309;50.924;4.754;2023-03-01T08:18:36;0.70;99.90
40600;DHT22;26309;50.924;4.754;2023-03-01T08:21:12;0.90;99.90
40600;DHT22;26309;50.924;4.754;2023-03-01T08:23:38;1.00;99.90
40600;DHT22;26309;50.924;4.754;2023-03-01T08:26:09;1.00;99.90
40600;DHT22;26309;50.924;4.754;2023-03-01T08:28:36;1.10;99.90
40600;DHT22;26309;50.924;4.754;2023-03-01T08:31:02;1.20;99.90
40600;DHT22;26309;50.924;4.754;2023-03-01T08:33:28;1.30;99.90
40600;DHT22;26309;50.924;4.754;2023-03-01T08:36:03;1.40;99.90
40600;DHT22;26309;50.924;4.754;2023-03-01T08:38:29;1.50;99.90
40600;DHT22;26309;50.924;4.754;2023-03-01T08:40:55;1.50;99.90
40600;DHT22;26309;50.924;4.754;2023-03-01T08:43:24;1.50;99.90
40600;DHT22;26309;50.924;4.754;2023-03-01T08:45:50;1.50;99.90
40600;DHT22;26309;50.924;4.754;2023-03-01T08:48:16;1.70;99.90
40600;DHT22;26309;50.924;4.754;2023-03-01T08:50:42;1.60;99.90
40600;DHT22;26309;50.924;4.754;2023-03-01T08:53:07;1.60;99.90
40600;DHT22;26309;50.924;4.754;2023-03-01T08:55:33;1.60;99.90
40600;DHT22;26309;50.924;4.754;2023-03-01T08:57:59;1.80;99.90
40600;DHT22;26309;50.924;4.754;2023-03-01T09:00:25;1.80;99.90
40600;DHT22;26309;50.924;4.754;2023-03-01T09:02:51;1.70;99.90
40600;DHT22;26309;50.924;4.754;2023-03-01T09:05:16;1.80;99.90
40600;DHT22;26309;50.924;4.754;2023-03-01T09:07:42;2.10;99.90
40600;DHT22;26309;50.924;4.754;2023-03-01T09:10:09;2.10;99.90
40600;DHT22;26309;50.924;4.754;2023-03-01T09:12:35;2.20;99.90
40600;DHT22;26309;50.924;4.754;2023-03-01T09:15:00;2.40;99.90
40600;DHT22;26309;50.924;4.754;2023-03-01T09:17:26;2.40;99.90
40600;DHT22;26309;50.924;4.754;2023-03-01T09:19:52;2.30;99.90
40600;DHT22;26309;50.924;4.754;2023-03-01T09:22:19;2.50;99.90
40600;DHT22;26309;50.924;4.754;2023-03-01T09:24:45;2.70;99.90
40600;DHT22;26309;50.924;4.754;2023-03-01T09:27:11;2.90;99.90
40600;DHT22;26309;50.924;4.754;2023-03-01T09:29:38;2.90;99.90
40600;DHT22;26309;50.924;4.754;2023-03-01T09:32:05;2.80;99.90
40600;DHT22;26309;50.924;4.754;2023-03-01T09:34:32;2.90;99.90
40600;DHT22;26309;50.924;4.754;2023-03-01T09:37:17;3.00;99.90
40600;DHT22;26309;50.924;4.754;2023-03-01T09:39:43;3.20;99.90
40600;DHT22;26309;50.924;4.754;2023-03-01T09:42:12;3.30;99.90
40600;DHT22;26309;50.924;4.754;2023-03-01T09:44:44;3.40;99.90
40600;DHT22;26309;50.924;4.754;2023-03-01T09:47:17;3.60;99.90
40600;DHT22;26309;50.924;4.754;2023-03-01T09:49:57;3.70;99.90
40600;DHT22;26309;50.924;4.754;2023-03-01T09:53:14;3.60;99.90
40600;DHT22;26309;50.924;4.754;2023-03-01T09:55:33;3.40;99.90
40600;DHT22;26309;50.924;4.754;2023-03-01T10:00:54;3.50;99.90
40600;DHT22;26309;50.924;4.754;2023-03-01T10:03:24;3.60;99.90
40600;DHT22;26309;50.924;4.754;2023-03-01T10:08:57;3.60;99.90
40600;DHT22;26309;50.924;4.754;2023-03-01T10:11:27;3.80;99.90
40600;DHT22;26309;50.924;4.754;2023-03-01T10:13:58;3.90;99.90
40600;DHT22;26309;50.924;4.754;2023-03-01T10:16:34;4.00;99.90
40600;DHT22;26309;50.924;4.754;2023-03-01T10:19:04;4.00;99.90
40600;DHT22;26309;50.924;4.754;2023-03-01T10:21:38;4.30;99.90
40600;DHT22;26309;50.924;4.754;2023-03-01T10:24:15;4.50;99.90
40600;DHT22;26309;50.924;4.754;2023-03-01T10:26:50;4.50;99.90
40600;DHT22;26309;50.924;4.754;2023-03-01T10:29:23;4.50;99.90
40600;DHT22;26309;50.924;4.754;2023-03-01T10:31:52;4.40;99.90
40600;DHT22;26309;50.924;4.754;2023-03-01T10:34:27;4.40;99.90
40600;DHT22;26309;50.924;4.754;2023-03-01T10:36:57;4.30;99.90
40600;DHT22;26309;50.924;4.754;2023-03-01T10:39:26;4.30;99.90
40600;DHT22;26309;50.924;4.754;2023-03-01T10:42:00;4.40;99.90
40600;DHT22;26309;50.924;4.754;2023-03-01T10:44:46;4.50;99.90
40600;DHT22;26309;50.924;4.754;2023-03-01T10:47:26;4.60;99.90
40600;DHT22;26309;50.924;4.754;2023-03-01T10:50:05;4.80;99.90
40600;DHT22;26309;50.924;4.754;2023-03-01T10:52:36;4.90;99.90
40600;DHT22;26309;50.924;4.754;2023-03-01T10:55:29;5.00;99.90
40600;DHT22;26309;50.924;4.754;2023-03-01T10:58:07;5.10;99.90
40600;DHT22;26309;50.924;4.754;2023-03-01T11:00:49;5.00;98.30
40600;DHT22;26309;50.924;4.754;2023-03-01T11:03:28;4.70;98.30
40600;DHT22;26309;50.924;4.754;2023-03-01T11:08:44;4.80;99.90
40600;DHT22;26309;50.924;4.754;2023-03-01T11:13:58;5.10;98.20
40600;DHT22;26309;50.924;4.754;2023-03-01T11:16:26;5.30;98.30
40600;DHT22;26309;50.924;4.754;2023-03-01T11:18:58;5.30;97.20
40600;DHT22;26309;50.924;4.754;2023-03-01T11:21:27;5.30;98.70
40600;DHT22;26309;50.924;4.754;2023-03-01T11:23:54;5.40;98.20
40600;DHT22;26309;50.924;4.754;2023-03-01T11:26:19;5.60;96.90
40600;DHT22;26309;50.924;4.754;2023-03-01T11:28:50;5.60;96.30
40600;DHT22;26309;50.924;4.754;2023-03-01T11:31:19;5.70;96.40
40600;DHT22;26309;50.924;4.754;2023-03-01T11:33:55;5.80;97.60
40600;DHT22;26309;50.924;4.754;2023-03-01T11:36:35;6.00;95.50
40600;DHT22;26309;50.924;4.754;2023-03-01T11:39:41;6.00;94.20
40600;DHT22;26309;50.924;4.754;2023-03-01T11:45:12;5.80;95.50
40600;DHT22;26309;50.924;4.754;2023-03-01T11:50:26;5.80;91.90
40600;DHT22;26309;50.924;4.754;2023-03-01T12:03:47;5.90;92.80
40600;DHT22;26309;50.924;4.754;2023-03-01T12:12:11;6.40;92.40
40600;DHT22;26309;50.924;4.754;2023-03-01T12:18:02;6.30;92.10
40600;DHT22;26309;50.924;4.754;2023-03-01T12:23:42;6.30;92.00
40600;DHT22;26309;50.924;4.754;2023-03-01T12:26:34;6.30;91.00
40600;DHT22;26309;50.924;4.754;2023-03-01T12:29:09;6.10;90.10
40600;DHT22;26309;50.924;4.754;2023-03-01T12:32:13;6.10;90.60
40600;DHT22;26309;50.924;4.754;2023-03-01T12:34:53;6.10;91.00
40600;DHT22;26309;50.924;4.754;2023-03-01T12:37:42;6.20;89.70
40600;DHT22;26309;50.924;4.754;2023-03-01T12:43:29;6.50;90.20
40600;DHT22;26309;50.924;4.754;2023-03-01T12:51:32;6.50;89.50
40600;DHT22;26309;50.924;4.754;2023-03-01T12:53:59;6.60;90.60
40600;DHT22;26309;50.924;4.754;2023-03-01T12:56:30;6.70;88.30
40600;DHT22;26309;50.924;4.754;2023-03-01T12:59:26;6.70;87.80
40600;DHT22;26309;50.924;4.754;2023-03-01T13:08:02;6.70;84.40
40600;DHT22;26309;50.924;4.754;2023-03-01T13:10:48;6.60;85.20
40600;DHT22;26309;50.924;4.754;2023-03-01T13:13:29;6.70;84.60
40600;DHT22;26309;50.924;4.754;2023-03-01T13:15:56;6.60;82.70
40600;DHT22;26309;50.924;4.754;2023-03-01T13:20:53;6.60;83.20
40600;DHT22;26309;50.924;4.754;2023-03-01T13:26:10;6.60;85.00
40600;DHT22;26309;50.924;4.754;2023-03-01T13:28:55;6.70;85.70
40600;DHT22;26309;50.924;4.754;2023-03-01T13:33:56;6.70;84.20
40600;DHT22;26309;50.924;4.754;2023-03-01T13:39:04;6.70;87.50
40600;DHT22;26309;50.924;4.754;2023-03-01T13:46:56;6.90;86.30
40600;DHT22;26309;50.924;4.754;2023-03-01T13:49:27;7.00;86.70
40600;DHT22;26309;50.924;4.754;2023-03-01T13:51:53;7.10;84.80
40600;DHT22;26309;50.924;4.754;2023-03-01T13:54:32;7.00;85.90
40600;DHT22;26309;50.924;4.754;2023-03-01T13:57:00;7.10;87.80
40600;DHT22;26309;50.924;4.754;2023-03-01T13:59:26;7.00;85.80
40600;DHT22;26309;50.924;4.754;2023-03-01T14:01:57;7.00;86.00
40600;DHT22;26309;50.924;4.754;2023-03-01T14:04:29;7.00;84.30
40600;DHT22;26309;50.924;4.754;2023-03-01T14:07:29;7.10;85.60
40600;DHT22;26309;50.924;4.754;2023-03-01T14:10:03;7.30;81.30
40600;DHT22;26309;50.924;4.754;2023-03-01T14:12:48;7.50;82.30
40600;DHT22;26309;50.924;4.754;2023-03-01T14:15:25;7.50;80.60
40600;DHT22;26309;50.924;4.754;2023-03-01T14:18:01;7.40;80.50
40600;DHT22;26309;50.924;4.754;2023-03-01T14:20:39;7.40;82.10
40600;DHT22;26309;50.924;4.754;2023-03-01T14:23:15;7.30;78.80
40600;DHT22;26309;50.924;4.754;2023-03-01T14:25:51;7.20;80.80
40600;DHT22;26309;50.924;4.754;2023-03-01T14:28:27;7.30;82.30
40600;DHT22;26309;50.924;4.754;2023-03-01T14:30:58;7.20;78.60
40600;DHT22;26309;50.924;4.754;2023-03-01T14:33:30;7.00;79.80
40600;DHT22;26309;50.924;4.754;2023-03-01T14:36:00;7.00;80.50
40600;DHT22;26309;50.924;4.754;2023-03-01T14:41:12;7.40;80.00
40600;DHT22;26309;50.924;4.754;2023-03-01T14:43:44;7.60;79.00
40600;DHT22;26309;50.924;4.754;2023-03-01T14:46:37;7.50;79.30
40600;DHT22;26309;50.924;4.754;2023-03-01T14:49:24;7.40;77.60
40600;DHT22;26309;50.924;4.754;2023-03-01T14:52:02;7.20;75.60
40600;DHT22;26309;50.924;4.754;2023-03-01T14:57:17;7.20;77.50
40600;DHT22;26309;50.924;4.754;2023-03-01T14:59:45;7.30;76.30
40600;DHT22;26309;50.924;4.754;2023-03-01T15:02:19;7.60;77.00
40600;DHT22;26309;50.924;4.754;2023-03-01T15:04:48;7.80;76.00
40600;DHT22;26309;50.924;4.754;2023-03-01T15:07:15;8.00;74.60
40600;DHT22;26309;50.924;4.754;2023-03-01T15:09:41;7.90;75.50
40600;DHT22;26309;50.924;4.754;2023-03-01T15:15:18;7.80;75.80
40600;DHT22;26309;50.924;4.754;2023-03-01T15:17:49;7.90;77.00
40600;DHT22;26309;50.924;4.754;2023-03-01T15:20:18;7.70;75.30
40600;DHT22;26309;50.924;4.754;2023-03-01T15:22:47;7.60;77.00
40600;DHT22;26309;50.924;4.754;2023-03-01T15:25:16;7.70;98.80
40600;DHT22;26309;50.924;4.754;2023-03-01T15:27:46;8.00;90.70
40600;DHT22;26309;50.924;4.754;2023-03-01T15:30:22;7.90;79.90
40600;DHT22;26309;50.924;4.754;2023-03-01T15:33:20;8.00;83.00
40600;DHT22;26309;50.924;4.754;2023-03-01T15:35:54;7.70;78.30
40600;DHT22;26309;50.924;4.754;2023-03-01T15:38:35;7.40;78.30
40600;DHT22;26309;50.924;4.754;2023-03-01T15:41:21;7.40;76.70
40600;DHT22;26309;50.924;4.754;2023-03-01T15:43:48;7.20;78.50
40600;DHT22;26309;50.924;4.754;2023-03-01T15:46:31;7.20;78.40
40600;DHT22;26309;50.924;4.754;2023-03-01T15:49:18;7.10;77.00
40600;DHT22;26309;50.924;4.754;2023-03-01T15:51:45;7.00;76.50
40600;DHT22;26309;50.924;4.754;2023-03-01T15:54:19;7.10;76.80
40600;DHT22;26309;50.924;4.754;2023-03-01T15:56:46;7.20;76.30
40600;DHT22;26309;50.924;4.754;2023-03-01T15:59:12;7.10;78.60
40600;DHT22;26309;50.924;4.754;2023-03-01T16:01:40;7.00;78.00
40600;DHT22;26309;50.924;4.754;2023-03-01T16:04:06;6.90;78.60
40600;DHT22;26309;50.924;4.754;2023-03-01T16:06:32;6.90;78.50
40600;DHT22;26309;50.924;4.754;2023-03-01T16:08:58;6.90;77.80
40600;DHT22;26309;50.924;4.754;2023-03-01T16:11:24;6.90;79.00
40600;DHT22;26309;50.924;4.754;2023-03-01T16:13:50;6.80;78.30
40600;DHT22;26309;50.924;4.754;2023-03-01T16:16:16;6.70;80.10
40600;DHT22;26309;50.924;4.754;2023-03-01T16:18:43;6.60;79.70
40600;DHT22;26309;50.924;4.754;2023-03-01T16:21:23;6.50;81.00
40600;DHT22;26309;50.924;4.754;2023-03-01T16:23:50;6.50;80.00
40600;DHT22;26309;50.924;4.754;2023-03-01T16:26:28;6.70;80.60
40600;DHT22;26309;50.924;4.754;2023-03-01T16:28:55;6.70;79.50
40600;DHT22;26309;50.924;4.754;2023-03-01T16:36:36;6.70;80.20
40600;DHT22;26309;50.924;4.754;2023-03-01T16:39:03;6.70;80.60
40600;DHT22;26309;50.924;4.754;2023-03-01T16:41:29;6.50;81.60
40600;DHT22;26309;50.924;4.754;2023-03-01T16:43:55;6.50;82.60
40600;DHT22;26309;50.924;4.754;2023-03-01T16:46:26;6.50;82.30
40600;DHT22;26309;50.924;4.754;2023-03-01T16:48:54;6.40;83.40
40600;DHT22;26309;50.924;4.754;2023-03-01T16:51:21;6.40;84.20
40600;DHT22;26309;50.924;4.754;2023-03-01T16:53:48;6.50;83.10
40600;DHT22;26309;50.924;4.754;2023-03-01T16:56:14;6.40;84.50
40600;DHT22;26309;50.924;4.754;2023-03-01T16:58:41;6.30;84.20
40600;DHT22;26309;50.924;4.754;2023-03-01T17:03:36;6.40;84.70
40600;DHT22;26309;50.924;4.754;2023-03-01T17:06:04;6.40;84.50
40600;DHT22;26309;50.924;4.754;2023-03-01T17:08:31;6.40;84.30
40600;DHT22;26309;50.924;4.754;2023-03-01T17:13:56;6.20;85.60
40600;DHT22;26309;50.924;4.754;2023-03-01T17:16:22;6.10;85.90
40600;DHT22;26309;50.924;4.754;2023-03-01T17:18:48;5.90;86.20
40600;DHT22;26309;50.924;4.754;2023-03-01T17:21:15;5.80;87.60
40600;DHT22;26309;50.924;4.754;2023-03-01T17:23:43;5.70;87.70
40600;DHT22;26309;50.924;4.754;2023-03-01T17:26:09;5.60;89.00
40600;DHT22;26309;50.924;4.754;2023-03-01T17:28:36;5.60;88.90
40600;DHT22;26309;50.924;4.754;2023-03-01T17:31:05;5.70;88.10
40600;DHT22;26309;50.924;4.754;2023-03-01T17:33:31;5.60;88.70
40600;DHT22;26309;50.924;4.754;2023-03-01T17:35:58;5.60;88.70
40600;DHT22;26309;50.924;4.754;2023-03-01T17:38:24;5.70;89.20